createdAt,value
2023-02-11T00:02:11.600Z,83.56
2023-02-11T00:07:13.696Z,84.35
2023-02-11T00:12:15.599Z,84.28
2023-02-11T00:17:17.709Z,83.41
2023-02-11T00:22:19.880Z,83.45
2023-02-11T00:27:21.732Z,83.84
2023-02-11T00:32:23.690Z,84.50
2023-02-11T00:37:25.576Z,85.28
2023-02-11T00:42:27.526Z,85.52
2023-02-11T00:47:29.615Z,85.42
2023-02-11T00:52:32.223Z,85.75
2023-02-11T00:57:33.873Z,86.13
2023-02-11T01:02:35.790Z,85.22
2023-02-11T01:07:37.752Z,86.15
2023-02-11T01:12:39.971Z,86.42
2023-02-11T01:17:42.014Z,86.32
2023-02-11T01:22:43.933Z,86.51
2023-02-11T01:27:45.886Z,86.83
2023-02-11T01:32:47.793Z,87.12
2023-02-11T01:37:49.811Z,86.17
2023-02-11T01:42:51.712Z,86.61
2023-02-11T01:47:53.655Z,86.38
2023-02-11T01:52:55.547Z,86.01
2023-02-11T01:58:00.969Z,85.83
2023-02-11T02:03:11.488Z,84.85
2023-02-11T02:08:27.237Z,84.20
2023-02-11T02:13:30.389Z,83.50
2023-02-11T02:19:10.490Z,82.27
2023-02-11T02:24:24.372Z,81.42
2023-02-11T02:29:43.921Z,81.25
2023-02-11T02:35:04.400Z,80.04
2023-02-11T02:40:11.438Z,80.34
2023-02-11T02:45:14.347Z,80.12
2023-02-11T02:50:17.439Z,79.71
2023-02-11T02:55:34.365Z,79.82
2023-02-11T03:01:03.949Z,79.63
2023-02-11T03:06:34.375Z,79.82
2023-02-11T03:11:36.318Z,80.56
2023-02-11T03:16:38.239Z,79.83
2023-02-11T03:21:40.847Z,80.85
2023-02-11T03:27:08.594Z,81.23
2023-02-11T03:32:14.485Z,81.92
2023-02-11T03:37:24.740Z,81.87
2023-02-11T03:42:28.194Z,82.06
2023-02-11T03:47:30.127Z,81.93
2023-02-11T03:52:32.125Z,81.74
2023-02-11T03:57:34.048Z,82.22
2023-02-11T04:02:36.641Z,82.09
2023-02-11T04:07:38.376Z,82.53
2023-02-11T04:12:40.422Z,82.40
2023-02-11T04:17:42.688Z,83.14
2023-02-11T04:22:44.624Z,82.31
2023-02-11T04:27:46.459Z,82.78
2023-02-11T04:32:48.449Z,83.08
2023-02-11T04:37:50.249Z,83.43
2023-02-11T04:42:52.141Z,83.35
2023-02-11T04:47:54.170Z,84.19
2023-02-11T04:52:56.099Z,84.31
2023-02-11T04:57:58.076Z,84.29
2023-02-11T05:03:00.658Z,83.77
2023-02-11T05:08:02.394Z,84.83
2023-02-11T05:13:04.822Z,84.49
2023-02-11T05:18:06.663Z,84.85
2023-02-11T05:23:08.533Z,83.73
2023-02-11T05:28:10.495Z,82.78
2023-02-11T05:33:13.850Z,83.48
2023-02-11T05:38:15.704Z,83.07
2023-02-11T05:43:17.758Z,82.89
2023-02-11T05:48:19.799Z,82.60
2023-02-11T05:53:21.770Z,81.93
2023-02-11T05:58:23.682Z,81.47
2023-02-11T06:03:25.623Z,81.50
2023-02-11T06:08:27.675Z,80.75
2023-02-11T06:13:29.740Z,80.62
2023-02-11T06:18:31.629Z,80.10
2023-02-11T06:23:33.514Z,80.12
2023-02-11T06:28:35.531Z,80.68
2023-02-11T06:33:37.715Z,80.32
2023-02-11T06:38:39.696Z,79.29
2023-02-11T06:43:41.672Z,79.32
2023-02-11T06:48:44.932Z,79.48
2023-02-11T06:53:47.144Z,78.89
2023-02-11T06:58:51.865Z,78.41
2023-02-11T07:03:53.882Z,77.65
2023-02-11T07:08:55.987Z,77.60
2023-02-11T07:14:01.497Z,77.78
2023-02-11T07:19:03.492Z,77.85
2023-02-11T07:24:11.060Z,78.02
2023-02-11T07:29:13.449Z,77.44
2023-02-11T07:34:15.417Z,75.78
2023-02-11T07:40:06.517Z,76.63
2023-02-11T07:45:08.764Z,76.89
2023-02-11T07:50:10.787Z,76.54
2023-02-11T07:55:12.752Z,77.12
2023-02-11T08:00:15.331Z,76.73
2023-02-11T08:05:17.312Z,76.26
2023-02-11T08:10:19.408Z,76.70
2023-02-11T08:15:21.418Z,75.90
2023-02-11T08:20:23.281Z,75.18
2023-02-11T08:25:25.228Z,74.51
2023-02-11T08:30:27.643Z,74.55
2023-02-11T08:35:29.679Z,73.81
2023-02-11T08:40:31.550Z,73.64
2023-02-11T08:45:33.522Z,73.21
2023-02-11T08:50:35.510Z,73.93
2023-02-11T08:55:37.504Z,74.48
2023-02-11T09:00:39.446Z,74.83
2023-02-11T09:05:47.745Z,75.07
2023-02-11T09:10:49.906Z,75.00
2023-02-11T09:15:52.028Z,74.39
2023-02-11T09:20:54.133Z,75.25
2023-02-11T09:25:56.115Z,75.33
2023-02-11T09:30:58.005Z,76.22
2023-02-11T09:36:04.112Z,76.14
2023-02-11T09:41:05.968Z,76.79
2023-02-11T09:46:09.391Z,76.51
2023-02-11T09:51:20.867Z,75.99
2023-02-11T09:56:23.792Z,76.72
2023-02-11T10:01:39.109Z,77.13
2023-02-11T10:06:49.410Z,77.03
2023-02-11T10:12:15.475Z,77.51
2023-02-11T10:17:35.268Z,78.02
2023-02-11T10:22:40.663Z,78.80
2023-02-11T10:27:42.563Z,79.24
2023-02-11T10:32:59.394Z,79.17
2023-02-11T10:38:01.302Z,78.64
2023-02-11T10:43:04.979Z,79.07
2023-02-11T10:48:27.353Z,77.80
2023-02-11T10:53:29.248Z,77.79
2023-02-11T10:58:34.639Z,77.46
2023-02-11T11:03:45.815Z,76.34
2023-02-11T11:08:49.222Z,76.83
2023-02-11T11:13:54.072Z,76.13
2023-02-11T11:19:08.162Z,75.55
2023-02-11T11:24:18.932Z,75.96
2023-02-11T11:29:24.804Z,74.74
2023-02-11T11:34:38.855Z,75.34
2023-02-11T11:39:40.859Z,74.89
2023-02-11T11:44:42.794Z,74.10
2023-02-11T11:50:06.426Z,74.10
2023-02-11T11:55:18.516Z,73.94
2023-02-11T12:00:22.657Z,74.04
2023-02-11T12:05:24.415Z,73.45
2023-02-11T12:10:38.271Z,72.71
2023-02-11T12:15:55.528Z,73.19
2023-02-11T12:21:00.335Z,73.08
2023-02-11T12:26:24.765Z,72.77
2023-02-11T12:31:45.741Z,73.59
2023-02-11T12:37:07.927Z,73.52
2023-02-11T12:42:40.561Z,73.01
2023-02-11T12:48:19.138Z,73.35
2023-02-11T12:54:01.117Z,74.15
2023-02-11T12:59:03.087Z,73.92
2023-02-11T13:04:08.867Z,74.30
2023-02-11T13:09:17.364Z,75.22
2023-02-11T13:14:34.908Z,76.06
2023-02-11T13:19:44.659Z,76.39
2023-02-11T13:25:11.138Z,76.00
2023-02-11T13:30:28.931Z,77.01
2023-02-11T13:35:37.855Z,79.04
2023-02-11T13:40:39.853Z,81.07
2023-02-11T13:45:44.185Z,82.29
2023-02-11T13:50:50.406Z,83.56
2023-02-11T13:55:54.774Z,84.76
2023-02-11T14:00:56.924Z,86.47
2023-02-11T14:06:19.200Z,87.21
2023-02-11T14:11:24.104Z,88.29
2023-02-11T14:16:37.525Z,88.68
2023-02-11T14:21:40.337Z,89.29
2023-02-11T14:27:04.310Z,89.97
2023-02-11T14:32:38.488Z,90.70
2023-02-11T14:37:50.817Z,90.68
2023-02-11T14:42:54.518Z,92.13
2023-02-11T14:48:14.181Z,92.74
2023-02-11T14:53:23.164Z,93.14
2023-02-11T14:58:27.042Z,94.06
2023-02-11T15:03:42.690Z,94.49
2023-02-11T15:08:49.427Z,95.32
2023-02-11T15:13:53.079Z,96.07
2023-02-11T15:18:58.559Z,97.40
2023-02-11T15:24:05.674Z,98.42
2023-02-11T15:29:16.704Z,98.26
2023-02-11T15:34:18.583Z,98.97
2023-02-11T15:39:41.296Z,99.35
2023-02-11T15:44:43.162Z,99.93
2023-02-11T15:49:45.724Z,100.00
2023-02-11T15:54:47.706Z,100.00
2023-02-11T15:59:51.271Z,100.00
2023-02-11T16:05:01.699Z,100.00
2023-02-11T16:10:14.320Z,100.00
2023-02-11T16:15:35.339Z,100.00
2023-02-11T16:20:37.234Z,100.00
2023-02-11T16:25:39.186Z,100.00
2023-02-11T16:30:41.296Z,100.00
2023-02-11T16:35:43.134Z,100.00
2023-02-11T16:40:45.160Z,100.00
2023-02-11T16:45:46.994Z,100.00
2023-02-11T16:50:52.874Z,100.00
2023-02-11T16:55:55.193Z,100.00
2023-02-11T17:00:57.101Z,100.00
2023-02-11T17:05:59.664Z,100.00
2023-02-11T17:11:02.513Z,100.00
2023-02-11T17:16:04.256Z,100.00
2023-02-11T17:21:07.394Z,100.00
2023-02-11T17:26:09.352Z,100.00
2023-02-11T17:31:11.539Z,100.00
2023-02-11T17:36:13.456Z,100.00
2023-02-11T17:41:15.452Z,100.00
2023-02-11T17:46:17.501Z,100.00
2023-02-11T17:51:29.643Z,100.00
2023-02-11T17:56:35.481Z,100.00
2023-02-11T18:01:37.826Z,100.00
2023-02-11T18:06:39.816Z,100.00
2023-02-11T18:11:41.950Z,100.00
2023-02-11T18:16:44.012Z,100.00
2023-02-11T18:21:45.944Z,100.00
2023-02-11T18:26:48.019Z,100.00
2023-02-11T18:31:50.026Z,100.00
2023-02-11T18:36:52.128Z,100.00
2023-02-11T18:41:57.196Z,100.00
2023-02-11T18:46:59.781Z,100.00
2023-02-11T18:52:01.829Z,100.00
2023-02-11T18:57:03.963Z,100.00
2023-02-11T19:02:05.839Z,100.00
2023-02-11T19:07:07.813Z,100.00
2023-02-11T19:12:09.782Z,100.00
2023-02-11T19:17:11.880Z,100.00
2023-02-11T19:22:13.801Z,100.00
2023-02-11T19:27:15.739Z,100.00
2023-02-11T19:32:17.726Z,100.00
2023-02-11T19:37:19.723Z,100.00
2023-02-11T19:42:21.754Z,100.00
2023-02-11T19:47:23.580Z,100.00
2023-02-11T19:52:25.773Z,100.00
2023-02-11T19:57:27.670Z,100.00
2023-02-11T20:02:29.594Z,100.00
2023-02-11T20:07:31.619Z,100.00
2023-02-11T20:12:33.608Z,100.00
2023-02-11T20:17:35.611Z,100.00
2023-02-11T20:22:37.556Z,100.00
2023-02-11T20:27:39.572Z,100.00
2023-02-11T20:32:41.613Z,100.00
2023-02-11T20:37:44.241Z,100.00
2023-02-11T20:42:45.969Z,100.00
2023-02-11T20:47:47.828Z,100.00
2023-02-11T20:52:49.728Z,100.00
2023-02-11T20:57:51.569Z,100.00
2023-02-11T21:02:53.566Z,100.00
2023-02-11T21:07:55.413Z,100.00
2023-02-11T21:12:57.413Z,100.00
2023-02-11T21:17:59.326Z,100.00
2023-02-11T21:23:01.304Z,100.00
2023-02-11T21:28:03.502Z,100.00
2023-02-11T21:33:05.772Z,100.00
2023-02-11T21:38:07.709Z,100.00
2023-02-11T21:43:09.586Z,100.00
2023-02-11T21:48:11.674Z,100.00
2023-02-11T21:53:13.781Z,100.00
2023-02-11T21:58:15.682Z,100.00
2023-02-11T22:03:17.607Z,100.00
2023-02-11T22:08:20.308Z,100.00
2023-02-11T22:13:22.077Z,100.00
2023-02-11T22:18:23.938Z,100.00
2023-02-11T22:23:25.732Z,100.00
2023-02-11T22:28:27.811Z,100.00
2023-02-11T22:33:29.842Z,100.00
2023-02-11T22:38:32.191Z,100.00
2023-02-11T22:43:34.144Z,100.00
2023-02-11T22:48:36.114Z,100.00
2023-02-11T22:53:38.013Z,100.00
2023-02-11T22:58:39.983Z,100.00
2023-02-11T23:03:41.892Z,100.00
2023-02-11T23:08:44.034Z,100.00
2023-02-11T23:13:46.476Z,100.00
2023-02-11T23:18:48.920Z,100.00
2023-02-11T23:23:57.418Z,100.00
2023-02-11T23:28:59.562Z,100.00
2023-02-11T23:34:01.438Z,100.00
2023-02-11T23:39:03.821Z,100.00
2023-02-11T23:44:05.778Z,100.00
2023-02-11T23:49:07.636Z,100.00
2023-02-11T23:54:12.746Z,100.00
2023-02-11T23:59:14.648Z,100.00
